sensor_id;sensor_type;location;lat;lon;timestamp;pressure;altitude;pressure_sealevel;temperature;humidity
73085;BME280;62974;49.460;10.892;2023-05-12T00:02:22;97633.41;;;10.54;100.00
73085;BME280;62974;49.460;10.892;2023-05-12T00:04:49;97635.19;;;10.27;100.00
73085;BME280;62974;49.460;10.892;2023-05-12T00:07:17;97634.19;;;10.42;100.00
73085;BME280;62974;49.460;10.892;2023-05-12T00:09:44;97635.03;;;10.42;100.00
73085;BME280;62974;49.460;10.892;2023-05-12T00:12:12;97628.59;;;10.43;100.00
73085;BME280;62974;49.460;10.892;2023-05-12T00:14:39;97632.53;;;10.41;100.00
73085;BME280;62974;49.460;10.892;2023-05-12T00:17:08;97628.88;;;10.55;100.00
73085;BME280;62974;49.460;10.892;2023-05-12T00:19:36;97631.69;;;10.27;100.00
73085;BME280;62974;49.460;10.892;2023-05-12T00:22:03;97629.03;;;10.33;100.00
73085;BME280;62974;49.460;10.892;2023-05-12T00:24:31;97633.94;;;10.17;100.00
73085;BME280;62974;49.460;10.892;2023-05-12T00:26:58;97636.44;;;10.25;100.00
73085;BME280;62974;49.460;10.892;2023-05-12T00:29:26;97633.34;;;10.28;100.00
73085;BME280;62974;49.460;10.892;2023-05-12T00:31:54;97629.81;;;10.27;100.00
73085;BME280;62974;49.460;10.892;2023-05-12T00:34:23;97632.34;;;10.42;100.00
73085;BME280;62974;49.460;10.892;2023-05-12T00:36:50;97623.69;;;10.47;100.00
73085;BME280;62974;49.460;10.892;2023-05-12T00:39:18;97624.69;;;10.39;100.00
73085;BME280;62974;49.460;10.892;2023-05-12T00:41:45;97627.59;;;10.38;100.00
73085;BME280;62974;49.460;10.892;2023-05-12T00:44:15;97627.16;;;10.34;100.00
73085;BME280;62974;49.460;10.892;2023-05-12T00:46:43;97624.72;;;10.46;100.00
73085;BME280;62974;49.460;10.892;2023-05-12T00:49:11;97631.88;;;10.19;100.00
73085;BME280;62974;49.460;10.892;2023-05-12T00:51:40;97629.22;;;10.32;100.00
73085;BME280;62974;49.460;10.892;2023-05-12T00:54:08;97626.94;;;10.22;100.00
73085;BME280;62974;49.460;10.892;2023-05-12T00:56:36;97632.53;;;10.34;100.00
73085;BME280;62974;49.460;10.892;2023-05-12T00:59:05;97624.09;;;10.50;100.00
73085;BME280;62974;49.460;10.892;2023-05-12T01:01:33;97625.28;;;10.28;100.00
73085;BME280;62974;49.460;10.892;2023-05-12T01:04:01;97632.50;;;10.21;100.00
73085;BME280;62974;49.460;10.892;2023-05-12T01:06:36;97630.84;;;10.20;100.00
73085;BME280;62974;49.460;10.892;2023-05-12T01:09:06;97626.72;;;10.17;100.00
73085;BME280;62974;49.460;10.892;2023-05-12T01:11:34;97624.03;;;10.24;100.00
73085;BME280;62974;49.460;10.892;2023-05-12T01:14:02;97620.16;;;10.40;100.00
73085;BME280;62974;49.460;10.892;2023-05-12T01:16:33;97613.72;;;10.27;100.00
73085;BME280;62974;49.460;10.892;2023-05-12T01:19:04;97612.72;;;10.48;100.00
73085;BME280;62974;49.460;10.892;2023-05-12T01:21:33;97611.03;;;10.27;100.00
73085;BME280;62974;49.460;10.892;2023-05-12T01:24:07;97614.34;;;10.23;100.00
73085;BME280;62974;49.460;10.892;2023-05-12T01:26:36;97617.25;;;10.34;100.00
73085;BME280;62974;49.460;10.892;2023-05-12T01:29:04;97603.44;;;10.38;100.00
73085;BME280;62974;49.460;10.892;2023-05-12T01:31:33;97609.44;;;10.53;100.00
73085;BME280;62974;49.460;10.892;2023-05-12T01:34:01;97604.44;;;10.43;100.00
73085;BME280;62974;49.460;10.892;2023-05-12T01:36:28;97607.34;;;10.48;100.00
73085;BME280;62974;49.460;10.892;2023-05-12T01:38:56;97604.91;;;10.53;100.00
73085;BME280;62974;49.460;10.892;2023-05-12T01:41:24;97608.38;;;10.47;100.00
73085;BME280;62974;49.460;10.892;2023-05-12T01:43:53;97602.78;;;10.35;100.00
73085;BME280;62974;49.460;10.892;2023-05-12T01:46:20;97603.47;;;10.51;100.00
73085;BME280;62974;49.460;10.892;2023-05-12T01:48:48;97610.25;;;10.47;100.00
73085;BME280;62974;49.460;10.892;2023-05-12T01:51:15;97610.66;;;10.44;100.00
73085;BME280;62974;49.460;10.892;2023-05-12T01:53:43;97606.13;;;10.57;100.00
73085;BME280;62974;49.460;10.892;2023-05-12T01:56:10;97607.38;;;10.55;100.00
73085;BME280;62974;49.460;10.892;2023-05-12T01:58:38;97606.97;;;10.58;100.00
73085;BME280;62974;49.460;10.892;2023-05-12T02:01:07;97598.31;;;10.62;100.00
73085;BME280;62974;49.460;10.892;2023-05-12T02:03:34;97603.88;;;10.54;100.00
73085;BME280;62974;49.460;10.892;2023-05-12T02:06:03;97602.41;;;10.39;100.00
73085;BME280;62974;49.460;10.892;2023-05-12T02:08:31;97603.03;;;10.60;100.00
73085;BME280;62974;49.460;10.892;2023-05-12T02:11:04;97592.94;;;10.62;100.00
73085;BME280;62974;49.460;10.892;2023-05-12T02:13:32;97593.53;;;10.58;100.00
73085;BME280;62974;49.460;10.892;2023-05-12T02:16:00;97589.38;;;10.55;100.00
73085;BME280;62974;49.460;10.892;2023-05-12T02:18:29;97600.56;;;10.65;100.00
73085;BME280;62974;49.460;10.892;2023-05-12T02:20:56;97597.06;;;10.65;100.00
73085;BME280;62974;49.460;10.892;2023-05-12T02:23:24;97601.41;;;10.66;100.00
73085;BME280;62974;49.460;10.892;2023-05-12T02:25:51;97593.97;;;10.61;100.00
73085;BME280;62974;49.460;10.892;2023-05-12T02:28:19;97598.06;;;10.64;100.00
73085;BME280;62974;49.460;10.892;2023-05-12T02:30:48;97600.16;;;10.62;100.00
73085;BME280;62974;49.460;10.892;2023-05-12T02:33:16;97593.53;;;10.64;100.00
73085;BME280;62974;49.460;10.892;2023-05-12T02:35:48;97600.13;;;10.55;100.00
73085;BME280;62974;49.460;10.892;2023-05-12T02:38:15;97597.25;;;10.63;100.00
73085;BME280;62974;49.460;10.892;2023-05-12T02:40:43;97596.03;;;10.66;100.00
73085;BME280;62974;49.460;10.892;2023-05-12T02:43:10;97600.38;;;10.67;100.00
73085;BME280;62974;49.460;10.892;2023-05-12T02:45:38;97605.50;;;10.42;100.00
73085;BME280;62974;49.460;10.892;2023-05-12T02:48:06;97606.72;;;10.33;100.00
73085;BME280;62974;49.460;10.892;2023-05-12T02:50:34;97601.72;;;10.23;100.00
73085;BME280;62974;49.460;10.892;2023-05-12T02:53:03;97601.13;;;10.28;100.00
73085;BME280;62974;49.460;10.892;2023-05-12T02:55:30;97601.56;;;10.38;100.00
73085;BME280;62974;49.460;10.892;2023-05-12T02:57:59;97599.31;;;10.48;100.00
73085;BME280;62974;49.460;10.892;2023-05-12T03:00:26;97601.16;;;10.48;100.00
73085;BME280;62974;49.460;10.892;2023-05-12T03:02:54;97594.16;;;10.53;100.00
73085;BME280;62974;49.460;10.892;2023-05-12T03:05:21;97587.75;;;10.54;100.00
73085;BME280;62974;49.460;10.892;2023-05-12T03:07:49;97597.66;;;10.34;100.00
73085;BME280;62974;49.460;10.892;2023-05-12T03:10:18;97595.19;;;10.46;100.00
73085;BME280;62974;49.460;10.892;2023-05-12T03:12:46;97596.22;;;10.38;100.00
73085;BME280;62974;49.460;10.892;2023-05-12T03:15:13;97592.47;;;10.39;100.00
73085;BME280;62974;49.460;10.892;2023-05-12T03:17:41;97598.09;;;10.51;100.00
73085;BME280;62974;49.460;10.892;2023-05-12T03:20:09;97593.31;;;10.53;100.00
73085;BME280;62974;49.460;10.892;2023-05-12T03:22:37;97592.50;;;10.52;100.00
73085;BME280;62974;49.460;10.892;2023-05-12T03:25:06;97594.16;;;10.53;100.00
73085;BME280;62974;49.460;10.892;2023-05-12T03:27:37;97590.03;;;10.64;100.00
73085;BME280;62974;49.460;10.892;2023-05-12T03:30:05;97594.97;;;10.47;100.00
73085;BME280;62974;49.460;10.892;2023-05-12T03:32:33;97597.00;;;10.32;100.00
73085;BME280;62974;49.460;10.892;2023-05-12T03:35:00;97598.66;;;10.26;100.00
73085;BME280;62974;49.460;10.892;2023-05-12T03:37:28;97598.47;;;10.41;100.00
73085;BME280;62974;49.460;10.892;2023-05-12T03:39:55;97596.22;;;10.58;100.00
73085;BME280;62974;49.460;10.892;2023-05-12T03:42:23;97598.50;;;10.61;100.00
73085;BME280;62974;49.460;10.892;2023-05-12T03:44:52;97598.09;;;10.51;100.00
73085;BME280;62974;49.460;10.892;2023-05-12T03:47:20;97605.72;;;10.54;100.00
73085;BME280;62974;49.460;10.892;2023-05-12T03:49:47;97585.28;;;10.66;100.00
73085;BME280;62974;49.460;10.892;2023-05-12T03:52:15;97594.72;;;10.22;100.00
73085;BME280;62974;49.460;10.892;2023-05-12T03:54:42;97593.50;;;10.25;100.00
73085;BME280;62974;49.460;10.892;2023-05-12T03:57:11;97597.88;;;10.52;100.00
73085;BME280;62974;49.460;10.892;2023-05-12T03:59:38;97595.81;;;10.54;100.00
73085;BME280;62974;49.460;10.892;2023-05-12T04:02:07;97591.88;;;10.63;100.00
73085;BME280;62974;49.460;10.892;2023-05-12T04:04:37;97595.19;;;10.65;100.00
73085;BME280;62974;49.460;10.892;2023-05-12T04:07:04;97592.72;;;10.64;100.00
73085;BME280;62974;49.460;10.892;2023-05-12T04:09:32;97592.31;;;10.54;100.00
73085;BME280;62974;49.460;10.892;2023-05-12T04:11:59;97592.91;;;10.56;100.00
73085;BME280;62974;49.460;10.892;2023-05-12T04:14:27;97589.59;;;10.47;100.00
73085;BME280;62974;49.460;10.892;2023-05-12T04:17:09;97594.16;;;10.60;100.00
73085;BME280;62974;49.460;10.892;2023-05-12T04:19:37;97595.41;;;10.64;100.00
73085;BME280;62974;49.460;10.892;2023-05-12T04:22:04;97590.84;;;10.64;100.00
73085;BME280;62974;49.460;10.892;2023-05-12T04:24:31;97603.91;;;10.00;100.00
73085;BME280;62974;49.460;10.892;2023-05-12T04:26:59;97607.06;;;10.10;100.00
73085;BME280;62974;49.460;10.892;2023-05-12T04:29:27;97608.38;;;10.34;100.00
73085;BME280;62974;49.460;10.892;2023-05-12T04:31:54;97603.22;;;10.52;100.00
73085;BME280;62974;49.460;10.892;2023-05-12T04:34:23;97611.88;;;10.28;100.00
73085;BME280;62974;49.460;10.892;2023-05-12T04:36:51;97608.50;;;10.06;100.00
73085;BME280;62974;49.460;10.892;2023-05-12T04:39:18;97615.19;;;10.30;100.00
73085;BME280;62974;49.460;10.892;2023-05-12T04:41:46;97619.00;;;10.08;100.00
73085;BME280;62974;49.460;10.892;2023-05-12T04:44:14;97629.31;;;10.04;100.00
73085;BME280;62974;49.460;10.892;2023-05-12T04:46:41;97621.50;;;10.09;100.00
73085;BME280;62974;49.460;10.892;2023-05-12T04:49:09;97625.25;;;10.15;100.00
73085;BME280;62974;49.460;10.892;2023-05-12T04:51:38;97624.03;;;10.24;100.00
73085;BME280;62974;49.460;10.892;2023-05-12T04:54:08;97619.31;;;10.26;100.00
73085;BME280;62974;49.460;10.892;2023-05-12T04:56:35;97613.53;;;10.35;100.00
73085;BME280;62974;49.460;10.892;2023-05-12T04:59:03;97618.09;;;10.42;100.00
73085;BME280;62974;49.460;10.892;2023-05-12T05:01:31;97625.47;;;10.20;100.00
73085;BME280;62974;49.460;10.892;2023-05-12T05:03:59;97624.66;;;10.26;100.00
73085;BME280;62974;49.460;10.892;2023-05-12T05:06:26;97620.75;;;10.22;100.00
73085;BME280;62974;49.460;10.892;2023-05-12T05:08:55;97622.81;;;10.26;100.00
73085;BME280;62974;49.460;10.892;2023-05-12T05:11:23;97618.50;;;10.39;100.00
73085;BME280;62974;49.460;10.892;2023-05-12T05:13:51;97617.56;;;10.05;100.00
73085;BME280;62974;49.460;10.892;2023-05-12T05:16:18;97624.88;;;10.24;100.00
73085;BME280;62974;49.460;10.892;2023-05-12T05:18:46;97629.63;;;10.22;100.00
73085;BME280;62974;49.460;10.892;2023-05-12T05:21:13;97624.50;;;10.41;100.00
73085;BME280;62974;49.460;10.892;2023-05-12T05:23:41;97629.81;;;10.27;100.00
73085;BME280;62974;49.460;10.892;2023-05-12T05:26:10;97622.81;;;10.40;100.00
73085;BME280;62974;49.460;10.892;2023-05-12T05:28:38;97624.28;;;10.42;100.00
73085;BME280;62974;49.460;10.892;2023-05-12T05:31:18;97632.91;;;10.24;100.00
73085;BME280;62974;49.460;10.892;2023-05-12T05:33:46;97633.00;;;10.03;100.00
73085;BME280;62974;49.460;10.892;2023-05-12T05:36:13;97635.31;;;10.13;100.00
73085;BME280;62974;49.460;10.892;2023-05-12T05:38:41;97632.13;;;10.37;100.00
73085;BME280;62974;49.460;10.892;2023-05-12T05:41:10;97631.06;;;10.25;100.00
73085;BME280;62974;49.460;10.892;2023-05-12T05:43:38;97632.72;;;10.32;100.00
73085;BME280;62974;49.460;10.892;2023-05-12T05:46:06;97635.44;;;10.46;100.00
73085;BME280;62974;49.460;10.892;2023-05-12T05:48:34;97645.97;;;10.41;100.00
73085;BME280;62974;49.460;10.892;2023-05-12T05:51:02;97635.63;;;10.38;100.00
73085;BME280;62974;49.460;10.892;2023-05-12T05:53:30;97640.81;;;10.46;100.00
73085;BME280;62974;49.460;10.892;2023-05-12T05:55:57;97642.44;;;10.33;100.00
73085;BME280;62974;49.460;10.892;2023-05-12T05:58:26;97651.97;;;10.49;100.00
73085;BME280;62974;49.460;10.892;2023-05-12T06:00:54;97651.19;;;10.62;100.00
73085;BME280;62974;49.460;10.892;2023-05-12T06:03:22;97639.19;;;10.58;100.00
73085;BME280;62974;49.460;10.892;2023-05-12T06:05:49;97653.66;;;10.70;100.00
73085;BME280;62974;49.460;10.892;2023-05-12T06:08:17;97650.34;;;10.61;100.00
73085;BME280;62974;49.460;10.892;2023-05-12T06:10:44;97652.44;;;10.86;100.00
73085;BME280;62974;49.460;10.892;2023-05-12T06:13:12;97651.63;;;10.78;100.00
73085;BME280;62974;49.460;10.892;2023-05-12T06:15:41;97665.22;;;10.57;100.00
73085;BME280;62974;49.460;10.892;2023-05-12T06:18:08;97666.66;;;10.53;100.00
73085;BME280;62974;49.460;10.892;2023-05-12T06:20:36;97672.88;;;10.80;100.00
73085;BME280;62974;49.460;10.892;2023-05-12T06:23:04;97659.25;;;10.81;100.00
73085;BME280;62974;49.460;10.892;2023-05-12T06:25:32;97659.03;;;10.76;100.00
73085;BME280;62974;49.460;10.892;2023-05-12T06:27:59;97665.44;;;10.62;100.00
73085;BME280;62974;49.460;10.892;2023-05-12T06:30:26;97666.06;;;10.77;100.00
73085;BME280;62974;49.460;10.892;2023-05-12T06:32:55;97668.16;;;10.82;100.00
73085;BME280;62974;49.460;10.892;2023-05-12T06:35:23;97668.31;;;10.61;100.00
73085;BME280;62974;49.460;10.892;2023-05-12T06:37:50;97683.41;;;10.68;100.00
73085;BME280;62974;49.460;10.892;2023-05-12T06:40:18;97681.78;;;10.74;100.00
73085;BME280;62974;49.460;10.892;2023-05-12T06:42:45;97689.63;;;10.89;100.00
73085;BME280;62974;49.460;10.892;2023-05-12T06:45:13;97680.31;;;10.65;100.00
73085;BME280;62974;49.460;10.892;2023-05-12T06:47:41;97682.97;;;10.71;100.00
73085;BME280;62974;49.460;10.892;2023-05-12T06:50:10;97689.78;;;10.61;100.00
73085;BME280;62974;49.460;10.892;2023-05-12T06:52:37;97688.34;;;10.58;100.00
73085;BME280;62974;49.460;10.892;2023-05-12T06:55:05;97685.47;;;10.66;100.00
73085;BME280;62974;49.460;10.892;2023-05-12T06:57:33;97692.50;;;10.74;100.00
73085;BME280;62974;49.460;10.892;2023-05-12T07:00:01;97691.50;;;10.81;100.00
73085;BME280;62974;49.460;10.892;2023-05-12T07:02:28;97685.91;;;10.96;100.00
73085;BME280;62974;49.460;10.892;2023-05-12T07:04:56;97681.38;;;11.03;100.00
73085;BME280;62974;49.460;10.892;2023-05-12T07:07:25;97681.59;;;11.02;100.00
73085;BME280;62974;49.460;10.892;2023-05-12T07:09:53;97679.31;;;10.99;100.00
73085;BME280;62974;49.460;10.892;2023-05-12T07:12:20;97682.19;;;11.04;100.00
73085;BME280;62974;49.460;10.892;2023-05-12T07:14:47;97686.34;;;10.93;100.00
73085;BME280;62974;49.460;10.892;2023-05-12T07:17:15;97684.47;;;11.00;100.00
73085;BME280;62974;49.460;10.892;2023-05-12T07:19:42;97690.25;;;10.84;100.00
73085;BME280;62974;49.460;10.892;2023-05-12T07:22:10;97688.59;;;10.90;100.00
73085;BME280;62974;49.460;10.892;2023-05-12T07:24:39;97694.81;;;10.90;100.00
73085;BME280;62974;49.460;10.892;2023-05-12T07:27:07;97686.97;;;11.08;100.00
73085;BME280;62974;49.460;10.892;2023-05-12T07:29:35;97686.75;;;10.97;100.00
73085;BME280;62974;49.460;10.892;2023-05-12T07:32:03;97691.50;;;11.01;100.00
73085;BME280;62974;49.460;10.892;2023-05-12T07:34:31;97688.81;;;10.95;100.00
73085;BME280;62974;49.460;10.892;2023-05-12T07:36:59;97686.94;;;10.95;100.00
73085;BME280;62974;49.460;10.892;2023-05-12T07:39:27;97689.03;;;11.06;100.00
73085;BME280;62974;49.460;10.892;2023-05-12T07:41:58;97697.06;;;11.00;100.00
73085;BME280;62974;49.460;10.892;2023-05-12T07:44:26;97697.69;;;11.15;100.00
73085;BME280;62974;49.460;10.892;2023-05-12T07:46:53;97696.91;;;11.14;100.00
73085;BME280;62974;49.460;10.892;2023-05-12T07:49:21;97702.47;;;11.06;100.00
73085;BME280;62974;49.460;10.892;2023-05-12T07:51:49;97702.47;;;11.13;100.00
73085;BME280;62974;49.460;10.892;2023-05-12T07:54:17;97702.06;;;11.09;100.00
73085;BME280;62974;49.460;10.892;2023-05-12T07:56:44;97695.44;;;11.18;100.00
73085;BME280;62974;49.460;10.892;2023-05-12T07:59:13;97704.72;;;11.16;100.00
73085;BME280;62974;49.460;10.892;2023-05-12T08:01:41;97706.56;;;10.96;100.00
73085;BME280;62974;49.460;10.892;2023-05-12T08:04:08;97702.47;;;11.06;100.00
73085;BME280;62974;49.460;10.892;2023-05-12T08:06:36;97707.84;;;11.06;100.00
73085;BME280;62974;49.460;10.892;2023-05-12T08:09:03;97716.09;;;11.05;100.00
73085;BME280;62974;49.460;10.892;2023-05-12T08:11:31;97715.28;;;11.04;100.00
73085;BME280;62974;49.460;10.892;2023-05-12T08:13:59;97707.63;;;11.08;100.00
73085;BME280;62974;49.460;10.892;2023-05-12T08:16:27;97707.22;;;11.11;100.00
73085;BME280;62974;49.460;10.892;2023-05-12T08:18:55;97707.84;;;11.06;100.00
73085;BME280;62974;49.460;10.892;2023-05-12T08:21:24;97707.84;;;11.19;100.00
73085;BME280;62974;49.460;10.892;2023-05-12T08:23:53;97710.53;;;11.32;100.00
73085;BME280;62974;49.460;10.892;2023-05-12T08:26:21;97707.00;;;11.39;100.00
73085;BME280;62974;49.460;10.892;2023-05-12T08:28:49;97707.84;;;11.32;100.00
73085;BME280;62974;49.460;10.892;2023-05-12T08:31:17;97719.41;;;11.53;100.00
73085;BME280;62974;49.460;10.892;2023-05-12T08:33:46;97710.13;;;11.42;100.00
73085;BME280;62974;49.460;10.892;2023-05-12T08:36:24;97714.06;;;11.46;100.00
73085;BME280;62974;49.460;10.892;2023-05-12T08:38:52;97711.78;;;11.30;100.00
73085;BME280;62974;49.460;10.892;2023-05-12T08:41:24;97714.88;;;11.53;100.00
73085;BME280;62974;49.460;10.892;2023-05-12T08:43:58;97712.78;;;11.49;100.00
73085;BME280;62974;49.460;10.892;2023-05-12T08:46:26;97717.53;;;11.60;100.00
73085;BME280;62974;49.460;10.892;2023-05-12T08:48:58;97719.22;;;11.54;100.00
73085;BME280;62974;49.460;10.892;2023-05-12T08:51:28;97725.00;;;11.77;100.00
73085;BME280;62974;49.460;10.892;2023-05-12T08:53:57;97720.44;;;11.71;100.00
73085;BME280;62974;49.460;10.892;2023-05-12T08:56:25;97722.50;;;11.83;100.00
73085;BME280;62974;49.460;10.892;2023-05-12T08:58:56;97720.44;;;11.85;100.00
73085;BME280;62974;49.460;10.892;2023-05-12T09:01:24;97715.19;;;12.03;100.00
73085;BME280;62974;49.460;10.892;2023-05-12T09:03:52;97717.63;;;12.24;100.00
73085;BME280;62974;49.460;10.892;2023-05-12T09:06:21;97715.31;;;12.28;100.00
73085;BME280;62974;49.460;10.892;2023-05-12T09:08:48;97707.44;;;12.33;100.00
73085;BME280;62974;49.460;10.892;2023-05-12T09:11:16;97708.13;;;12.21;100.00
73085;BME280;62974;49.460;10.892;2023-05-12T09:13:51;97705.03;;;12.11;100.00
73085;BME280;62974;49.460;10.892;2023-05-12T09:16:22;97721.84;;;11.87;100.00
73085;BME280;62974;49.460;10.892;2023-05-12T09:18:51;97727.03;;;11.89;100.00
73085;BME280;62974;49.460;10.892;2023-05-12T09:21:21;97727.88;;;11.69;100.00
73085;BME280;62974;49.460;10.892;2023-05-12T09:23:53;97735.53;;;11.59;100.00
73085;BME280;62974;49.460;10.892;2023-05-12T09:26:21;97739.06;;;11.53;100.00
73085;BME280;62974;49.460;10.892;2023-05-12T09:28:49;97735.13;;;11.36;100.00
73085;BME280;62974;49.460;10.892;2023-05-12T09:31:17;97746.72;;;11.56;100.00
73085;BME280;62974;49.460;10.892;2023-05-12T09:33:45;97747.13;;;11.53;100.00
73085;BME280;62974;49.460;10.892;2023-05-12T09:36:16;97745.91;;;11.62;100.00
73085;BME280;62974;49.460;10.892;2023-05-12T09:38:44;97744.44;;;11.80;100.00
73085;BME280;62974;49.460;10.892;2023-05-12T09:41:12;97745.91;;;11.82;100.00
73085;BME280;62974;49.460;10.892;2023-05-12T09:43:45;97747.75;;;11.88;100.00
73085;BME280;62974;49.460;10.892;2023-05-12T09:46:13;97740.88;;;11.99;100.00
73085;BME280;62974;49.460;10.892;2023-05-12T09:48:40;97734.81;;;12.23;100.00
73085;BME280;62974;49.460;10.892;2023-05-12T09:51:09;97730.44;;;12.29;100.00
73085;BME280;62974;49.460;10.892;2023-05-12T09:53:40;97735.34;;;12.38;100.00
73085;BME280;62974;49.460;10.892;2023-05-12T09:56:12;97736.59;;;12.49;100.00
73085;BME280;62974;49.460;10.892;2023-05-12T09:58:41;97748.72;;;12.64;100.00
73085;BME280;62974;49.460;10.892;2023-05-12T10:01:12;97736.47;;;12.68;100.00
73085;BME280;62974;49.460;10.892;2023-05-12T10:03:51;97736.47;;;12.68;100.00
73085;BME280;62974;49.460;10.892;2023-05-12T10:06:23;97724.28;;;12.59;100.00
73085;BME280;62974;49.460;10.892;2023-05-12T10:08:54;97726.03;;;12.79;100.00
73085;BME280;62974;49.460;10.892;2023-05-12T10:11:26;97724.06;;;12.99;100.00
73085;BME280;62974;49.460;10.892;2023-05-12T10:13:55;97716.97;;;13.11;100.00
73085;BME280;62974;49.460;10.892;2023-05-12T10:16:25;97722.81;;;13.33;100.00
73085;BME280;62974;49.460;10.892;2023-05-12T10:18:54;97715.88;;;13.43;100.00
73085;BME280;62974;49.460;10.892;2023-05-12T10:21:23;97711.91;;;13.46;100.00
73085;BME280;62974;49.460;10.892;2023-05-12T10:23:51;97704.50;;;13.41;100.00
73085;BME280;62974;49.460;10.892;2023-05-12T10:26:19;97708.59;;;13.19;100.00
73085;BME280;62974;49.460;10.892;2023-05-12T10:28:48;97711.59;;;13.36;100.00
73085;BME280;62974;49.460;10.892;2023-05-12T10:31:16;97710.13;;;12.77;100.00
73085;BME280;62974;49.460;10.892;2023-05-12T10:33:54;97705.13;;;12.74;100.00
73085;BME280;62974;49.460;10.892;2023-05-12T10:36:22;97712.38;;;12.80;100.00
73085;BME280;62974;49.460;10.892;2023-05-12T10:38:50;97715.19;;;12.92;100.00
73085;BME280;62974;49.460;10.892;2023-05-12T10:41:28;97709.94;;;12.72;100.00
73085;BME280;62974;49.460;10.892;2023-05-12T10:43:57;97704.59;;;12.59;100.00
73085;BME280;62974;49.460;10.892;2023-05-12T10:46:26;97721.88;;;12.45;100.00
73085;BME280;62974;49.460;10.892;2023-05-12T10:48:56;97714.72;;;12.26;100.00
73085;BME280;62974;49.460;10.892;2023-05-12T10:51:25;97726.53;;;12.24;100.00
73085;BME280;62974;49.460;10.892;2023-05-12T10:53:56;97726.34;;;12.13;100.00
73085;BME280;62974;49.460;10.892;2023-05-12T10:56:26;97736.34;;;11.93;100.00
73085;BME280;62974;49.460;10.892;2023-05-12T10:59:13;97736.34;;;11.93;100.00
73085;BME280;62974;49.460;10.892;2023-05-12T11:01:58;97740.47;;;11.95;100.00
73085;BME280;62974;49.460;10.892;2023-05-12T11:04:40;97744.00;;;11.96;100.00
73085;BME280;62974;49.460;10.892;2023-05-12T11:07:10;97745.44;;;11.98;100.00
73085;BME280;62974;49.460;10.892;2023-05-12T11:09:41;97752.91;;;11.96;100.00
73085;BME280;62974;49.460;10.892;2023-05-12T11:12:24;97752.63;;;12.24;100.00
73085;BME280;62974;49.460;10.892;2023-05-12T11:14:54;97750.34;;;12.21;100.00
73085;BME280;62974;49.460;10.892;2023-05-12T11:17:21;97744.31;;;12.32;100.00
73085;BME280;62974;49.460;10.892;2023-05-12T11:19:49;97741.44;;;12.71;100.00
73085;BME280;62974;49.460;10.892;2023-05-12T11:22:20;97737.06;;;12.70;100.00
73085;BME280;62974;49.460;10.892;2023-05-12T11:24:49;97752.22;;;12.71;100.00
73085;BME280;62974;49.460;10.892;2023-05-12T11:27:18;97740.66;;;12.64;100.00
73085;BME280;62974;49.460;10.892;2023-05-12T11:29:56;97748.75;;;12.96;100.00
73085;BME280;62974;49.460;10.892;2023-05-12T11:32:24;97738.22;;;12.88;100.00
73085;BME280;62974;49.460;10.892;2023-05-12T11:34:52;97744.31;;;13.08;100.00
73085;BME280;62974;49.460;10.892;2023-05-12T11:37:19;97746.00;;;13.02;100.00
73085;BME280;62974;49.460;10.892;2023-05-12T11:39:48;97737.38;;;12.94;100.00
73085;BME280;62974;49.460;10.892;2023-05-12T11:42:18;97752.50;;;12.95;100.00
73085;BME280;62974;49.460;10.892;2023-05-12T11:44:49;97746.03;;;12.64;100.00
73085;BME280;62974;49.460;10.892;2023-05-12T11:47:18;97751.50;;;12.89;100.00
73085;BME280;62974;49.460;10.892;2023-05-12T11:49:46;97746.44;;;12.99;100.00
73085;BME280;62974;49.460;10.892;2023-05-12T11:52:15;97749.44;;;12.85;100.00
73085;BME280;62974;49.460;10.892;2023-05-12T11:54:47;97757.81;;;12.70;100.00
73085;BME280;62974;49.460;10.892;2023-05-12T11:57:24;97751.28;;;12.53;100.00
73085;BME280;62974;49.460;10.892;2023-05-12T11:59:55;97756.22;;;12.56;100.00
73085;BME280;62974;49.460;10.892;2023-05-12T12:02:24;97764.19;;;12.31;100.00
73085;BME280;62974;49.460;10.892;2023-05-12T12:04:52;97767.34;;;12.15;100.00
73085;BME280;62974;49.460;10.892;2023-05-12T12:07:27;97774.63;;;11.95;100.00
73085;BME280;62974;49.460;10.892;2023-05-12T12:09:55;97781.22;;;12.12;100.00
73085;BME280;62974;49.460;10.892;2023-05-12T12:12:22;97786.22;;;12.08;100.00
73085;BME280;62974;49.460;10.892;2023-05-12T12:14:50;97781.44;;;12.04;100.00
73085;BME280;62974;49.460;10.892;2023-05-12T12:17:18;97794.69;;;12.12;100.00
73085;BME280;62974;49.460;10.892;2023-05-12T12:19:46;97783.50;;;12.21;100.00
73085;BME280;62974;49.460;10.892;2023-05-12T12:22:14;97784.50;;;12.27;100.00
73085;BME280;62974;49.460;10.892;2023-05-12T12:24:41;97793.00;;;12.24;100.00
73085;BME280;62974;49.460;10.892;2023-05-12T12:27:09;97801.72;;;12.26;100.00
73085;BME280;62974;49.460;10.892;2023-05-12T12:29:37;97807.03;;;12.39;100.00
73085;BME280;62974;49.460;10.892;2023-05-12T12:32:05;97805.38;;;12.38;100.00
73085;BME280;62974;49.460;10.892;2023-05-12T12:34:33;97800.34;;;12.55;100.00
73085;BME280;62974;49.460;10.892;2023-05-12T12:37:03;97797.25;;;12.51;100.00
73085;BME280;62974;49.460;10.892;2023-05-12T12:39:31;97797.47;;;12.56;100.00
73085;BME280;62974;49.460;10.892;2023-05-12T12:41:59;97790.44;;;12.49;100.00
73085;BME280;62974;49.460;10.892;2023-05-12T12:44:26;97796.44;;;12.57;100.00
73085;BME280;62974;49.460;10.892;2023-05-12T12:46:54;97794.72;;;12.63;100.00
73085;BME280;62974;49.460;10.892;2023-05-12T12:49:21;97799.88;;;12.71;100.00